sensor_id;sensor_type;location;lat;lon;timestamp;temperature;humidity
49236;DHT22;35067;48.134;8.378;2022-11-20T00:01:50;2.80;99.90
49236;DHT22;35067;48.134;8.378;2022-11-20T00:03:52;2.70;99.90
49236;DHT22;35067;48.134;8.378;2022-11-20T00:05:53;2.60;99.90
49236;DHT22;35067;48.134;8.378;2022-11-20T00:07:54;2.50;99.90
49236;DHT22;35067;48.134;8.378;2022-11-20T00:09:55;2.50;99.90
49236;DHT22;35067;48.134;8.378;2022-11-20T00:11:55;2.50;99.90
49236;DHT22;35067;48.134;8.378;2022-11-20T00:13:57;2.40;99.90
49236;DHT22;35067;48.134;8.378;2022-11-20T00:16:02;2.50;99.90
49236;DHT22;35067;48.134;8.378;2022-11-20T00:18:04;2.60;99.90
49236;DHT22;35067;48.134;8.378;2022-11-20T00:20:05;2.50;99.90
49236;DHT22;35067;48.134;8.378;2022-11-20T00:22:05;2.50;99.90
49236;DHT22;35067;48.134;8.378;2022-11-20T00:24:08;2.50;99.90
49236;DHT22;35067;48.134;8.378;2022-11-20T00:26:12;2.50;99.90
49236;DHT22;35067;48.134;8.378;2022-11-20T00:28:15;2.40;99.90
49236;DHT22;35067;48.134;8.378;2022-11-20T00:30:15;2.40;99.90
49236;DHT22;35067;48.134;8.378;2022-11-20T00:32:16;2.30;99.90
49236;DHT22;35067;48.134;8.378;2022-11-20T00:34:16;2.30;99.90
49236;DHT22;35067;48.134;8.378;2022-11-20T00:36:23;2.30;99.90
49236;DHT22;35067;48.134;8.378;2022-11-20T00:38:25;2.30;99.90
49236;DHT22;35067;48.134;8.378;2022-11-20T00:40:25;2.40;99.90
49236;DHT22;35067;48.134;8.378;2022-11-20T00:42:26;2.40;99.90
49236;DHT22;35067;48.134;8.378;2022-11-20T00:44:26;2.40;99.90
49236;DHT22;35067;48.134;8.378;2022-11-20T00:46:28;2.40;99.90
49236;DHT22;35067;48.134;8.378;2022-11-20T00:48:28;2.30;99.90
49236;DHT22;35067;48.134;8.378;2022-11-20T00:50:29;2.30;99.90
49236;DHT22;35067;48.134;8.378;2022-11-20T00:52:30;2.30;99.90
49236;DHT22;35067;48.134;8.378;2022-11-20T00:54:30;2.30;99.90
49236;DHT22;35067;48.134;8.378;2022-11-20T00:56:31;2.30;99.90
49236;DHT22;35067;48.134;8.378;2022-11-20T00:58:34;2.40;99.90
49236;DHT22;35067;48.134;8.378;2022-11-20T01:00:35;2.30;99.90
49236;DHT22;35067;48.134;8.378;2022-11-20T01:02:36;2.40;99.90
49236;DHT22;35067;48.134;8.378;2022-11-20T01:04:37;2.40;99.90
49236;DHT22;35067;48.134;8.378;2022-11-20T01:06:39;2.40;99.90
49236;DHT22;35067;48.134;8.378;2022-11-20T01:08:40;2.40;99.90
49236;DHT22;35067;48.134;8.378;2022-11-20T01:10:40;2.50;99.90
49236;DHT22;35067;48.134;8.378;2022-11-20T01:12:41;2.50;99.90
49236;DHT22;35067;48.134;8.378;2022-11-20T01:14:42;2.50;99.90
49236;DHT22;35067;48.134;8.378;2022-11-20T01:16:48;2.50;99.90
49236;DHT22;35067;48.134;8.378;2022-11-20T01:18:51;2.60;99.90
49236;DHT22;35067;48.134;8.378;2022-11-20T01:20:54;2.70;99.90
49236;DHT22;35067;48.134;8.378;2022-11-20T01:22:54;2.70;99.90
49236;DHT22;35067;48.134;8.378;2022-11-20T01:24:55;2.80;99.90
49236;DHT22;35067;48.134;8.378;2022-11-20T01:26:56;2.70;99.90
49236;DHT22;35067;48.134;8.378;2022-11-20T01:28:57;2.80;99.90
49236;DHT22;35067;48.134;8.378;2022-11-20T01:30:58;2.90;99.90
49236;DHT22;35067;48.134;8.378;2022-11-20T01:32:59;2.80;99.90
49236;DHT22;35067;48.134;8.378;2022-11-20T01:35:00;2.90;99.90
49236;DHT22;35067;48.134;8.378;2022-11-20T01:37:01;2.90;99.90
49236;DHT22;35067;48.134;8.378;2022-11-20T01:39:04;3.00;99.90
49236;DHT22;35067;48.134;8.378;2022-11-20T01:41:14;3.00;99.90
49236;DHT22;35067;48.134;8.378;2022-11-20T01:43:35;3.00;99.90
49236;DHT22;35067;48.134;8.378;2022-11-20T01:45:52;3.00;99.90
49236;DHT22;35067;48.134;8.378;2022-11-20T01:47:57;3.00;99.90
49236;DHT22;35067;48.134;8.378;2022-11-20T01:52:32;3.20;99.90
49236;DHT22;35067;48.134;8.378;2022-11-20T01:54:49;3.20;99.90
49236;DHT22;35067;48.134;8.378;2022-11-20T01:56:55;3.30;99.90
49236;DHT22;35067;48.134;8.378;2022-11-20T01:58:59;3.40;99.90
49236;DHT22;35067;48.134;8.378;2022-11-20T02:01:03;3.40;99.90
49236;DHT22;35067;48.134;8.378;2022-11-20T02:03:08;3.40;99.90
49236;DHT22;35067;48.134;8.378;2022-11-20T02:05:46;3.40;99.90
49236;DHT22;35067;48.134;8.378;2022-11-20T02:07:51;3.50;99.90
49236;DHT22;35067;48.134;8.378;2022-11-20T02:09:53;3.50;99.90
49236;DHT22;35067;48.134;8.378;2022-11-20T02:11:54;3.50;99.90
49236;DHT22;35067;48.134;8.378;2022-11-20T02:13:55;3.50;99.90
49236;DHT22;35067;48.134;8.378;2022-11-20T02:15:56;3.50;99.90
49236;DHT22;35067;48.134;8.378;2022-11-20T02:17:57;3.50;99.90
49236;DHT22;35067;48.134;8.378;2022-11-20T02:19:58;3.50;99.90
49236;DHT22;35067;48.134;8.378;2022-11-20T02:22:33;3.50;99.90
49236;DHT22;35067;48.134;8.378;2022-11-20T02:24:39;3.40;99.90
49236;DHT22;35067;48.134;8.378;2022-11-20T02:27:05;3.40;99.90
49236;DHT22;35067;48.134;8.378;2022-11-20T02:29:08;3.30;99.90
49236;DHT22;35067;48.134;8.378;2022-11-20T02:31:08;3.40;99.90
49236;DHT22;35067;48.134;8.378;2022-11-20T02:33:09;3.40;99.90
49236;DHT22;35067;48.134;8.378;2022-11-20T02:37:32;3.40;99.90
49236;DHT22;35067;48.134;8.378;2022-11-20T02:39:35;3.40;99.90
49236;DHT22;35067;48.134;8.378;2022-11-20T02:41:36;3.30;99.90
49236;DHT22;35067;48.134;8.378;2022-11-20T02:43:37;3.20;99.90
49236;DHT22;35067;48.134;8.378;2022-11-20T02:45:38;3.20;99.90
49236;DHT22;35067;48.134;8.378;2022-11-20T02:47:39;3.20;99.90
49236;DHT22;35067;48.134;8.378;2022-11-20T02:49:39;3.10;99.90
49236;DHT22;35067;48.134;8.378;2022-11-20T02:51:40;3.00;99.90
49236;DHT22;35067;48.134;8.378;2022-11-20T02:53:41;3.00;99.90
49236;DHT22;35067;48.134;8.378;2022-11-20T02:55:42;2.80;99.90
49236;DHT22;35067;48.134;8.378;2022-11-20T02:57:42;2.80;99.90
49236;DHT22;35067;48.134;8.378;2022-11-20T02:59:43;2.60;99.90
49236;DHT22;35067;48.134;8.378;2022-11-20T03:01:44;2.60;99.90
49236;DHT22;35067;48.134;8.378;2022-11-20T03:03:44;2.50;99.90
49236;DHT22;35067;48.134;8.378;2022-11-20T03:05:45;2.60;99.90
49236;DHT22;35067;48.134;8.378;2022-11-20T03:07:46;2.50;99.90
49236;DHT22;35067;48.134;8.378;2022-11-20T03:09:46;2.30;99.90
49236;DHT22;35067;48.134;8.378;2022-11-20T03:11:47;2.30;99.90
49236;DHT22;35067;48.134;8.378;2022-11-20T03:13:48;2.20;99.90
49236;DHT22;35067;48.134;8.378;2022-11-20T03:15:48;2.20;99.90
49236;DHT22;35067;48.134;8.378;2022-11-20T03:17:52;2.10;99.90
49236;DHT22;35067;48.134;8.378;2022-11-20T03:19:53;2.10;99.90
49236;DHT22;35067;48.134;8.378;2022-11-20T03:21:54;2.00;99.90
49236;DHT22;35067;48.134;8.378;2022-11-20T03:23:55;2.10;99.90
49236;DHT22;35067;48.134;8.378;2022-11-20T03:25:56;2.10;99.90
49236;DHT22;35067;48.134;8.378;2022-11-20T03:27:56;2.00;99.90
49236;DHT22;35067;48.134;8.378;2022-11-20T03:29:57;2.10;99.90
49236;DHT22;35067;48.134;8.378;2022-11-20T03:31:58;2.00;99.90
49236;DHT22;35067;48.134;8.378;2022-11-20T03:33:59;2.00;99.90
49236;DHT22;35067;48.134;8.378;2022-11-20T03:36:04;2.00;99.90
49236;DHT22;35067;48.134;8.378;2022-11-20T03:38:06;1.80;99.90
49236;DHT22;35067;48.134;8.378;2022-11-20T03:40:07;1.70;99.90
49236;DHT22;35067;48.134;8.378;2022-11-20T03:42:08;1.70;99.90
49236;DHT22;35067;48.134;8.378;2022-11-20T03:44:29;1.60;99.90
49236;DHT22;35067;48.134;8.378;2022-11-20T03:46:30;1.70;99.90
49236;DHT22;35067;48.134;8.378;2022-11-20T03:48:31;1.70;99.90
49236;DHT22;35067;48.134;8.378;2022-11-20T03:50:32;1.80;99.90
49236;DHT22;35067;48.134;8.378;2022-11-20T03:52:32;1.90;99.90
49236;DHT22;35067;48.134;8.378;2022-11-20T03:54:33;1.90;99.90
49236;DHT22;35067;48.134;8.378;2022-11-20T03:56:36;1.80;99.90
49236;DHT22;35067;48.134;8.378;2022-11-20T03:58:40;1.80;99.90
49236;DHT22;35067;48.134;8.378;2022-11-20T04:00:41;1.90;99.90
49236;DHT22;35067;48.134;8.378;2022-11-20T04:02:42;1.90;99.90
49236;DHT22;35067;48.134;8.378;2022-11-20T04:04:42;1.90;99.90
49236;DHT22;35067;48.134;8.378;2022-11-20T04:06:43;1.90;99.90
49236;DHT22;35067;48.134;8.378;2022-11-20T04:08:44;2.00;99.90
49236;DHT22;35067;48.134;8.378;2022-11-20T04:10:44;2.00;99.90
49236;DHT22;35067;48.134;8.378;2022-11-20T04:12:45;2.10;99.90
49236;DHT22;35067;48.134;8.378;2022-11-20T04:14:46;2.10;99.90
49236;DHT22;35067;48.134;8.378;2022-11-20T04:16:46;2.10;99.90
49236;DHT22;35067;48.134;8.378;2022-11-20T04:18:52;2.20;99.90
49236;DHT22;35067;48.134;8.378;2022-11-20T04:20:53;2.20;99.90
49236;DHT22;35067;48.134;8.378;2022-11-20T04:22:54;2.30;99.90
49236;DHT22;35067;48.134;8.378;2022-11-20T04:24:55;2.20;99.90
49236;DHT22;35067;48.134;8.378;2022-11-20T04:26:55;2.50;99.90
49236;DHT22;35067;48.134;8.378;2022-11-20T04:28:57;2.60;99.90
49236;DHT22;35067;48.134;8.378;2022-11-20T04:31:06;2.60;99.90
49236;DHT22;35067;48.134;8.378;2022-11-20T04:33:11;2.70;99.90
49236;DHT22;35067;48.134;8.378;2022-11-20T04:35:12;2.90;99.90
49236;DHT22;35067;48.134;8.378;2022-11-20T04:37:12;3.00;99.90
49236;DHT22;35067;48.134;8.378;2022-11-20T04:39:14;3.00;99.90
49236;DHT22;35067;48.134;8.378;2022-11-20T04:41:18;3.10;99.90
49236;DHT22;35067;48.134;8.378;2022-11-20T04:43:19;3.00;99.90
49236;DHT22;35067;48.134;8.378;2022-11-20T04:45:20;3.10;99.90
49236;DHT22;35067;48.134;8.378;2022-11-20T04:47:22;3.00;99.90
49236;DHT22;35067;48.134;8.378;2022-11-20T04:49:23;3.00;99.90
49236;DHT22;35067;48.134;8.378;2022-11-20T04:51:24;3.10;99.90
49236;DHT22;35067;48.134;8.378;2022-11-20T04:53:25;3.10;99.90
49236;DHT22;35067;48.134;8.378;2022-11-20T04:55:25;3.10;99.90
49236;DHT22;35067;48.134;8.378;2022-11-20T04:57:26;3.10;99.90
49236;DHT22;35067;48.134;8.378;2022-11-20T04:59:27;3.00;99.90
49236;DHT22;35067;48.134;8.378;2022-11-20T05:01:27;3.00;99.90
49236;DHT22;35067;48.134;8.378;2022-11-20T05:03:28;3.10;99.90
49236;DHT22;35067;48.134;8.378;2022-11-20T05:05:29;3.00;99.90
49236;DHT22;35067;48.134;8.378;2022-11-20T05:07:30;2.80;99.90
49236;DHT22;35067;48.134;8.378;2022-11-20T05:09:30;3.00;99.90
49236;DHT22;35067;48.134;8.378;2022-11-20T05:11:32;3.00;99.90
49236;DHT22;35067;48.134;8.378;2022-11-20T05:13:32;3.10;99.90
49236;DHT22;35067;48.134;8.378;2022-11-20T05:15:33;3.20;99.90
49236;DHT22;35067;48.134;8.378;2022-11-20T05:17:34;3.10;99.90
49236;DHT22;35067;48.134;8.378;2022-11-20T05:19:34;2.90;99.90
49236;DHT22;35067;48.134;8.378;2022-11-20T05:21:35;2.90;99.90
49236;DHT22;35067;48.134;8.378;2022-11-20T05:23:36;2.90;99.90
49236;DHT22;35067;48.134;8.378;2022-11-20T05:25:37;3.00;99.90
49236;DHT22;35067;48.134;8.378;2022-11-20T05:27:38;3.00;99.90
49236;DHT22;35067;48.134;8.378;2022-11-20T05:29:38;3.10;99.90
49236;DHT22;35067;48.134;8.378;2022-11-20T05:31:40;3.00;99.90
49236;DHT22;35067;48.134;8.378;2022-11-20T05:33:42;3.00;99.90
49236;DHT22;35067;48.134;8.378;2022-11-20T05:35:44;3.10;99.90
49236;DHT22;35067;48.134;8.378;2022-11-20T05:37:44;3.20;99.90
49236;DHT22;35067;48.134;8.378;2022-11-20T05:39:45;3.20;99.90
49236;DHT22;35067;48.134;8.378;2022-11-20T05:41:46;3.10;99.90
49236;DHT22;35067;48.134;8.378;2022-11-20T05:43:47;3.10;99.90
49236;DHT22;35067;48.134;8.378;2022-11-20T05:45:53;3.00;99.90
49236;DHT22;35067;48.134;8.378;2022-11-20T05:48:00;3.00;99.90
49236;DHT22;35067;48.134;8.378;2022-11-20T05:50:01;2.90;99.90
49236;DHT22;35067;48.134;8.378;2022-11-20T05:52:02;2.80;99.90
49236;DHT22;35067;48.134;8.378;2022-11-20T05:54:03;2.70;99.90
49236;DHT22;35067;48.134;8.378;2022-11-20T05:56:09;2.60;99.90
49236;DHT22;35067;48.134;8.378;2022-11-20T05:58:11;2.70;99.90
49236;DHT22;35067;48.134;8.378;2022-11-20T06:00:13;2.80;99.90
49236;DHT22;35067;48.134;8.378;2022-11-20T06:02:14;2.80;99.90
49236;DHT22;35067;48.134;8.378;2022-11-20T06:04:14;2.90;99.90
49236;DHT22;35067;48.134;8.378;2022-11-20T06:06:16;3.10;99.90
49236;DHT22;35067;48.134;8.378;2022-11-20T06:08:17;3.20;99.90
49236;DHT22;35067;48.134;8.378;2022-11-20T06:10:18;3.30;99.90
49236;DHT22;35067;48.134;8.378;2022-11-20T06:12:19;3.30;99.90
49236;DHT22;35067;48.134;8.378;2022-11-20T06:14:19;3.20;99.90
49236;DHT22;35067;48.134;8.378;2022-11-20T06:16:20;3.30;99.90
49236;DHT22;35067;48.134;8.378;2022-11-20T06:18:22;3.50;99.90
49236;DHT22;35067;48.134;8.378;2022-11-20T06:20:22;3.50;99.90
49236;DHT22;35067;48.134;8.378;2022-11-20T06:22:23;3.50;99.90
49236;DHT22;35067;48.134;8.378;2022-11-20T06:24:23;3.50;99.90
49236;DHT22;35067;48.134;8.378;2022-11-20T06:26:26;3.40;99.90
49236;DHT22;35067;48.134;8.378;2022-11-20T06:28:27;3.60;99.90
49236;DHT22;35067;48.134;8.378;2022-11-20T06:30:28;3.70;99.90
49236;DHT22;35067;48.134;8.378;2022-11-20T06:32:29;3.80;99.90
49236;DHT22;35067;48.134;8.378;2022-11-20T06:34:29;3.80;99.90
49236;DHT22;35067;48.134;8.378;2022-11-20T06:36:30;3.80;99.90
49236;DHT22;35067;48.134;8.378;2022-11-20T06:38:31;3.80;99.90
49236;DHT22;35067;48.134;8.378;2022-11-20T06:40:32;3.90;99.90
49236;DHT22;35067;48.134;8.378;2022-11-20T06:42:32;3.90;99.90
49236;DHT22;35067;48.134;8.378;2022-11-20T06:44:33;3.90;99.90
49236;DHT22;35067;48.134;8.378;2022-11-20T06:46:33;3.80;99.90
49236;DHT22;35067;48.134;8.378;2022-11-20T06:48:34;3.80;99.90
49236;DHT22;35067;48.134;8.378;2022-11-20T06:50:36;3.90;99.90
49236;DHT22;35067;48.134;8.378;2022-11-20T06:52:37;3.90;99.90
49236;DHT22;35067;48.134;8.378;2022-11-20T06:54:38;4.00;99.90
49236;DHT22;35067;48.134;8.378;2022-11-20T06:56:39;4.00;99.90
49236;DHT22;35067;48.134;8.378;2022-11-20T06:58:39;3.90;99.90
49236;DHT22;35067;48.134;8.378;2022-11-20T07:00:40;4.00;99.90
49236;DHT22;35067;48.134;8.378;2022-11-20T07:02:41;4.10;99.90
49236;DHT22;35067;48.134;8.378;2022-11-20T07:04:41;4.10;99.90
49236;DHT22;35067;48.134;8.378;2022-11-20T07:06:42;4.10;99.90
49236;DHT22;35067;48.134;8.378;2022-11-20T07:08:43;4.00;99.90
49236;DHT22;35067;48.134;8.378;2022-11-20T07:10:43;3.90;99.90
49236;DHT22;35067;48.134;8.378;2022-11-20T07:12:49;3.90;99.90
49236;DHT22;35067;48.134;8.378;2022-11-20T07:14:51;3.90;99.90
49236;DHT22;35067;48.134;8.378;2022-11-20T07:16:51;3.90;99.90
49236;DHT22;35067;48.134;8.378;2022-11-20T07:18:52;3.80;99.90
49236;DHT22;35067;48.134;8.378;2022-11-20T07:20:53;3.80;99.90
49236;DHT22;35067;48.134;8.378;2022-11-20T07:22:54;3.90;99.90
49236;DHT22;35067;48.134;8.378;2022-11-20T07:24:56;3.90;99.90
49236;DHT22;35067;48.134;8.378;2022-11-20T07:26:56;4.10;99.90
49236;DHT22;35067;48.134;8.378;2022-11-20T07:28:57;4.30;99.90
49236;DHT22;35067;48.134;8.378;2022-11-20T07:30:57;4.40;99.90
49236;DHT22;35067;48.134;8.378;2022-11-20T07:32:58;4.40;99.90
49236;DHT22;35067;48.134;8.378;2022-11-20T07:34:59;4.50;99.90
49236;DHT22;35067;48.134;8.378;2022-11-20T07:37:00;4.60;99.90
49236;DHT22;35067;48.134;8.378;2022-11-20T07:39:00;4.70;99.90
49236;DHT22;35067;48.134;8.378;2022-11-20T07:41:01;4.70;99.90
49236;DHT22;35067;48.134;8.378;2022-11-20T07:43:02;4.60;99.90
49236;DHT22;35067;48.134;8.378;2022-11-20T07:45:03;4.60;99.90
49236;DHT22;35067;48.134;8.378;2022-11-20T07:47:04;4.60;99.90
49236;DHT22;35067;48.134;8.378;2022-11-20T07:49:04;4.60;99.90
49236;DHT22;35067;48.134;8.378;2022-11-20T07:51:05;4.70;99.90
49236;DHT22;35067;48.134;8.378;2022-11-20T07:53:06;4.80;99.90
49236;DHT22;35067;48.134;8.378;2022-11-20T07:55:08;4.80;99.90
49236;DHT22;35067;48.134;8.378;2022-11-20T07:57:09;4.70;99.90
49236;DHT22;35067;48.134;8.378;2022-11-20T07:59:09;4.50;99.90
49236;DHT22;35067;48.134;8.378;2022-11-20T08:01:12;4.30;99.90
49236;DHT22;35067;48.134;8.378;2022-11-20T08:03:12;4.40;99.90
49236;DHT22;35067;48.134;8.378;2022-11-20T08:05:13;4.50;99.90
49236;DHT22;35067;48.134;8.378;2022-11-20T08:07:14;4.50;99.90
49236;DHT22;35067;48.134;8.378;2022-11-20T08:09:14;4.60;99.90
49236;DHT22;35067;48.134;8.378;2022-11-20T08:11:15;4.70;99.90
49236;DHT22;35067;48.134;8.378;2022-11-20T08:13:34;4.60;99.90
49236;DHT22;35067;48.134;8.378;2022-11-20T08:15:53;4.50;99.90
49236;DHT22;35067;48.134;8.378;2022-11-20T08:18:00;4.70;99.90
49236;DHT22;35067;48.134;8.378;2022-11-20T08:20:07;4.90;99.90
49236;DHT22;35067;48.134;8.378;2022-11-20T08:22:08;5.20;99.90
49236;DHT22;35067;48.134;8.378;2022-11-20T08:24:09;5.40;99.90
49236;DHT22;35067;48.134;8.378;2022-11-20T08:26:11;5.40;99.90
49236;DHT22;35067;48.134;8.378;2022-11-20T08:28:11;5.40;99.90
49236;DHT22;35067;48.134;8.378;2022-11-20T08:30:13;5.50;99.90
49236;DHT22;35067;48.134;8.378;2022-11-20T08:32:13;5.50;99.90
49236;DHT22;35067;48.134;8.378;2022-11-20T08:34:14;5.30;99.90
49236;DHT22;35067;48.134;8.378;2022-11-20T08:36:15;5.30;99.90
49236;DHT22;35067;48.134;8.378;2022-11-20T08:38:16;5.30;99.90
49236;DHT22;35067;48.134;8.378;2022-11-20T08:40:17;5.20;99.90
49236;DHT22;35067;48.134;8.378;2022-11-20T08:42:17;5.00;99.90
49236;DHT22;35067;48.134;8.378;2022-11-20T08:44:18;5.10;99.90
49236;DHT22;35067;48.134;8.378;2022-11-20T08:46:19;5.20;99.90
49236;DHT22;35067;48.134;8.378;2022-11-20T08:48:20;5.30;99.90
49236;DHT22;35067;48.134;8.378;2022-11-20T08:50:20;5.40;99.90
49236;DHT22;35067;48.134;8.378;2022-11-20T08:52:21;5.50;99.90
49236;DHT22;35067;48.134;8.378;2022-11-20T08:54:22;5.40;99.90
49236;DHT22;35067;48.134;8.378;2022-11-20T08:56:23;5.10;99.90
49236;DHT22;35067;48.134;8.378;2022-11-20T08:58:24;5.10;99.90
49236;DHT22;35067;48.134;8.378;2022-11-20T09:00:25;5.00;99.90
49236;DHT22;35067;48.134;8.378;2022-11-20T09:02:26;5.00;99.90
49236;DHT22;35067;48.134;8.378;2022-11-20T09:04:27;5.00;99.90
49236;DHT22;35067;48.134;8.378;2022-11-20T09:06:27;5.00;99.90
49236;DHT22;35067;48.134;8.378;2022-11-20T09:08:29;5.10;99.90
49236;DHT22;35067;48.134;8.378;2022-11-20T09:10:29;5.00;99.90
49236;DHT22;35067;48.134;8.378;2022-11-20T09:12:30;5.00;99.90
49236;DHT22;35067;48.134;8.378;2022-11-20T09:14:31;5.00;99.90
49236;DHT22;35067;48.134;8.378;2022-11-20T09:16:32;4.90;99.90
49236;DHT22;35067;48.134;8.378;2022-11-20T09:18:33;4.90;99.90
49236;DHT22;35067;48.134;8.378;2022-11-20T09:20:36;4.80;99.90
49236;DHT22;35067;48.134;8.378;2022-11-20T09:22:39;4.70;99.90
49236;DHT22;35067;48.134;8.378;2022-11-20T09:24:41;4.60;99.90
49236;DHT22;35067;48.134;8.378;2022-11-20T09:26:43;4.40;99.90
49236;DHT22;35067;48.134;8.378;2022-11-20T09:28:43;4.10;99.90
49236;DHT22;35067;48.134;8.378;2022-11-20T09:30:44;4.00;99.90
49236;DHT22;35067;48.134;8.378;2022-11-20T09:32:45;4.10;99.90
49236;DHT22;35067;48.134;8.378;2022-11-20T09:34:46;4.20;99.90
49236;DHT22;35067;48.134;8.378;2022-11-20T09:36:46;4.10;99.90
49236;DHT22;35067;48.134;8.378;2022-11-20T09:38:47;4.10;99.90
49236;DHT22;35067;48.134;8.378;2022-11-20T09:41:02;4.20;99.90
49236;DHT22;35067;48.134;8.378;2022-11-20T09:43:17;4.30;99.90
49236;DHT22;35067;48.134;8.378;2022-11-20T09:48:14;4.30;99.90
49236;DHT22;35067;48.134;8.378;2022-11-20T09:50:43;4.40;99.90
49236;DHT22;35067;48.134;8.378;2022-11-20T09:55:16;4.40;99.90
49236;DHT22;35067;48.134;8.378;2022-11-20T09:57:34;4.30;99.90
49236;DHT22;35067;48.134;8.378;2022-11-20T10:04:30;4.40;99.90
49236;DHT22;35067;48.134;8.378;2022-11-20T10:06:47;4.30;99.90
49236;DHT22;35067;48.134;8.378;2022-11-20T10:09:06;4.20;99.90
49236;DHT22;35067;48.134;8.378;2022-11-20T10:11:44;4.20;99.90
49236;DHT22;35067;48.134;8.378;2022-11-20T10:13:59;4.10;99.90
49236;DHT22;35067;48.134;8.378;2022-11-20T10:19:21;4.20;99.90
49236;DHT22;35067;48.134;8.378;2022-11-20T10:24:24;4.00;99.90
49236;DHT22;35067;48.134;8.378;2022-11-20T10:29:23;4.20;99.90
49236;DHT22;35067;48.134;8.378;2022-11-20T10:31:36;4.40;99.90
49236;DHT22;35067;48.134;8.378;2022-11-20T10:33:43;4.40;99.90
49236;DHT22;35067;48.134;8.378;2022-11-20T10:38:21;4.50;99.90
49236;DHT22;35067;48.134;8.378;2022-11-20T10:40:45;4.70;99.90
49236;DHT22;35067;48.134;8.378;2022-11-20T10:42:59;4.90;99.90
49236;DHT22;35067;48.134;8.378;2022-11-20T10:47:27;4.80;99.90
49236;DHT22;35067;48.134;8.378;2022-11-20T10:49:30;4.80;99.90
49236;DHT22;35067;48.134;8.378;2022-11-20T10:51:37;5.10;99.90
49236;DHT22;35067;48.134;8.378;2022-11-20T11:01:27;4.90;99.90
49236;DHT22;35067;48.134;8.378;2022-11-20T11:03:29;4.80;99.90
49236;DHT22;35067;48.134;8.378;2022-11-20T11:08:03;4.60;99.90
49236;DHT22;35067;48.134;8.378;2022-11-20T11:10:19;4.60;99.90
49236;DHT22;35067;48.134;8.378;2022-11-20T11:12:25;4.80;99.90
49236;DHT22;35067;48.134;8.378;2022-11-20T11:14:27;4.70;99.90
49236;DHT22;35067;48.134;8.378;2022-11-20T11:16:28;4.60;99.90
49236;DHT22;35067;48.134;8.378;2022-11-20T11:18:31;4.50;99.90
49236;DHT22;35067;48.134;8.378;2022-11-20T11:20:33;4.30;99.90
49236;DHT22;35067;48.134;8.378;2022-11-20T11:22:42;4.30;99.90
49236;DHT22;35067;48.134;8.378;2022-11-20T11:24:52;4.40;99.90
49236;DHT22;35067;48.134;8.378;2022-11-20T11:27:04;4.40;99.90
49236;DHT22;35067;48.134;8.378;2022-11-20T11:29:17;4.50;99.90
49236;DHT22;35067;48.134;8.378;2022-11-20T11:31:44;4.50;99.90
49236;DHT22;35067;48.134;8.378;2022-11-20T11:33:45;4.80;99.90
49236;DHT22;35067;48.134;8.378;2022-11-20T11:35:50;4.90;99.90
49236;DHT22;35067;48.134;8.378;2022-11-20T11:38:02;5.00;99.90
49236;DHT22;35067;48.134;8.378;2022-11-20T11:40:11;5.20;99.90
49236;DHT22;35067;48.134;8.378;2022-11-20T11:42:17;5.40;99.90
49236;DHT22;35067;48.134;8.378;2022-11-20T11:46:55;5.70;99.90
49236;DHT22;35067;48.134;8.378;2022-11-20T11:49:22;6.20;99.90
49236;DHT22;35067;48.134;8.378;2022-11-20T11:51:21;6.20;99.90
49236;DHT22;35067;48.134;8.378;2022-11-20T11:53:23;6.20;99.90
49236;DHT22;35067;48.134;8.378;2022-11-20T11:57:53;6.20;99.50
49236;DHT22;35067;48.134;8.378;2022-11-20T12:00:10;5.90;99.70
49236;DHT22;35067;48.134;8.378;2022-11-20T12:02:36;5.60;99.90
49236;DHT22;35067;48.134;8.378;2022-11-20T12:04:48;5.50;99.90
49236;DHT22;35067;48.134;8.378;2022-11-20T12:07:03;5.60;99.90
49236;DHT22;35067;48.134;8.378;2022-11-20T12:09:11;5.50;99.90
49236;DHT22;35067;48.134;8.378;2022-11-20T12:15:34;5.50;98.90
49236;DHT22;35067;48.134;8.378;2022-11-20T12:17:35;5.70;99.90
49236;DHT22;35067;48.134;8.378;2022-11-20T12:19:35;6.00;99.10
49236;DHT22;35067;48.134;8.378;2022-11-20T12:21:50;6.50;99.10
49236;DHT22;35067;48.134;8.378;2022-11-20T12:27:22;6.80;96.10
49236;DHT22;35067;48.134;8.378;2022-11-20T12:34:47;7.50;94.20
49236;DHT22;35067;48.134;8.378;2022-11-20T12:49:44;9.80;74.20
49236;DHT22;35067;48.134;8.378;2022-11-20T12:57:07;10.90;69.10
49236;DHT22;35067;48.134;8.378;2022-11-20T13:06:45;7.20;87.20
49236;DHT22;35067;48.134;8.378;2022-11-20T13:08:55;6.40;90.80
49236;DHT22;35067;48.134;8.378;2022-11-20T13:11:05;6.00;91.60
49236;DHT22;35067;48.134;8.378;2022-11-20T13:13:23;5.60;94.50
49236;DHT22;35067;48.134;8.378;2022-11-20T13:15:42;5.50;95.40
49236;DHT22;35067;48.134;8.378;2022-11-20T13:17:55;5.60;96.90
49236;DHT22;35067;48.134;8.378;2022-11-20T13:19:59;5.60;96.30
49236;DHT22;35067;48.134;8.378;2022-11-20T13:22:00;5.70;96.20
49236;DHT22;35067;48.134;8.378;2022-11-20T13:24:19;5.60;96.00
49236;DHT22;35067;48.134;8.378;2022-11-20T13:26:23;5.60;95.90
49236;DHT22;35067;48.134;8.378;2022-11-20T13:28:29;5.60;96.40
49236;DHT22;35067;48.134;8.378;2022-11-20T13:30:31;5.60;96.00
49236;DHT22;35067;48.134;8.378;2022-11-20T13:32:32;6.10;95.90
49236;DHT22;35067;48.134;8.378;2022-11-20T13:34:33;6.90;93.90
49236;DHT22;35067;48.134;8.378;2022-11-20T13:36:35;7.90;90.20
49236;DHT22;35067;48.134;8.378;2022-11-20T13:38:44;8.60;85.30
49236;DHT22;35067;48.134;8.378;2022-11-20T13:40:53;8.50;83.70
49236;DHT22;35067;48.134;8.378;2022-11-20T13:45:31;7.40;87.50
49236;DHT22;35067;48.134;8.378;2022-11-20T13:47:32;7.10;90.20
49236;DHT22;35067;48.134;8.378;2022-11-20T13:49:37;6.90;91.50
49236;DHT22;35067;48.134;8.378;2022-11-20T13:51:50;6.50;92.10
49236;DHT22;35067;48.134;8.378;2022-11-20T13:54:14;6.10;93.90
49236;DHT22;35067;48.134;8.378;2022-11-20T14:01:00;6.10;92.50
49236;DHT22;35067;48.134;8.378;2022-11-20T14:05:18;6.00;93.80
49236;DHT22;35067;48.134;8.378;2022-11-20T14:07:24;5.70;94.10
49236;DHT22;35067;48.134;8.378;2022-11-20T14:09:33;5.60;95.10
49236;DHT22;35067;48.134;8.378;2022-11-20T14:11:34;5.40;95.10
49236;DHT22;35067;48.134;8.378;2022-11-20T14:13:35;5.40;95.30
49236;DHT22;35067;48.134;8.378;2022-11-20T14:15:36;5.40;95.80
49236;DHT22;35067;48.134;8.378;2022-11-20T14:17:40;5.50;96.00
49236;DHT22;35067;48.134;8.378;2022-11-20T14:19:42;5.70;96.40
49236;DHT22;35067;48.134;8.378;2022-11-20T14:21:45;5.70;95.50
49236;DHT22;35067;48.134;8.378;2022-11-20T14:23:46;5.70;96.40
49236;DHT22;35067;48.134;8.378;2022-11-20T14:25:46;6.00;96.00
49236;DHT22;35067;48.134;8.378;2022-11-20T14:27:59;6.30;94.50
49236;DHT22;35067;48.134;8.378;2022-11-20T14:30:02;6.50;93.30
49236;DHT22;35067;48.134;8.378;2022-11-20T14:32:03;7.00;93.10
49236;DHT22;35067;48.134;8.378;2022-11-20T14:34:04;7.60;90.20
49236;DHT22;35067;48.134;8.378;2022-11-20T14:36:05;7.80;88.40
49236;DHT22;35067;48.134;8.378;2022-11-20T14:38:14;8.50;84.70
49236;DHT22;35067;48.134;8.378;2022-11-20T14:40:25;8.80;80.20
49236;DHT22;35067;48.134;8.378;2022-11-20T14:42:29;8.90;80.00
49236;DHT22;35067;48.134;8.378;2022-11-20T14:44:33;8.50;80.00
49236;DHT22;35067;48.134;8.378;2022-11-20T14:46:34;8.10;81.60